createdAt,value
2019-01-08T00:02:41.928Z,9.20
2019-01-08T00:07:57.981Z,9.30
2019-01-08T00:13:13.585Z,10.97
2019-01-08T00:18:29.469Z,9.43
2019-01-08T00:23:45.409Z,8.43
2019-01-08T00:29:01.053Z,6.30
2019-01-08T00:34:16.522Z,5.73
2019-01-08T00:39:31.994Z,5.63
2019-01-08T00:44:47.313Z,5.70
2019-01-08T00:50:02.984Z,4.73
2019-01-08T00:55:18.250Z,3.03
2019-01-08T01:00:33.934Z,3.33
2019-01-08T01:05:49.747Z,2.70
2019-01-08T01:11:05.641Z,2.63
2019-01-08T01:16:21.689Z,2.63
2019-01-08T01:21:36.961Z,2.43
2019-01-08T01:26:52.371Z,2.63
2019-01-08T01:32:07.855Z,3.70
2019-01-08T01:37:23.157Z,3.27
2019-01-08T01:42:39.409Z,3.77
2019-01-08T01:47:55.319Z,3.77
2019-01-08T01:53:10.897Z,3.67
2019-01-08T01:58:27.141Z,4.03
2019-01-08T02:03:42.492Z,4.33
2019-01-08T02:08:57.858Z,3.53
2019-01-08T02:14:13.320Z,3.90
2019-01-08T02:19:28.600Z,3.63
2019-01-08T02:24:44.294Z,3.77
2019-01-08T02:29:59.925Z,3.50
2019-01-08T02:35:15.424Z,3.13
2019-01-08T02:40:31.373Z,3.10
2019-01-08T02:45:46.657Z,3.17
2019-01-08T02:51:02.145Z,2.90
2019-01-08T02:56:17.592Z,3.13
2019-01-08T03:01:34.125Z,2.10
2019-01-08T03:06:49.913Z,2.63
2019-01-08T03:12:05.725Z,2.93
2019-01-08T03:17:21.874Z,2.80
2019-01-08T03:22:37.150Z,3.37
2019-01-08T03:27:52.994Z,3.00
2019-01-08T03:33:08.674Z,2.67
2019-01-08T03:38:24.091Z,2.93
2019-01-08T03:43:40.185Z,2.73
2019-01-08T03:48:56.321Z,3.43
2019-01-08T03:54:11.841Z,3.23
2019-01-08T03:59:27.068Z,2.27
2019-01-08T04:04:30.796Z,3.50
2019-01-08T04:09:53.838Z,3.93
2019-01-08T04:15:16.646Z,2.73
2019-01-08T04:20:39.717Z,2.57
2019-01-08T04:26:02.728Z,2.70
2019-01-08T04:31:18.242Z,2.60
2019-01-08T04:36:33.905Z,2.93
2019-01-08T04:41:49.644Z,2.93
2019-01-08T04:47:05.289Z,2.73
2019-01-08T04:52:20.631Z,3.40
2019-01-08T04:57:36.292Z,2.40
2019-01-08T05:02:52.047Z,3.17
2019-01-08T05:08:07.708Z,2.13
2019-01-08T05:13:22.937Z,2.50
2019-01-08T05:18:38.385Z,2.50
2019-01-08T05:23:53.894Z,3.03
2019-01-08T05:29:09.618Z,2.53
2019-01-08T05:34:25.325Z,2.57
2019-01-08T05:39:40.643Z,3.27
2019-01-08T05:44:56.081Z,2.97
2019-01-08T05:50:11.534Z,3.27
2019-01-08T05:55:26.876Z,2.77
2019-01-08T06:00:43.038Z,2.70
2019-01-08T06:05:58.521Z,2.83
2019-01-08T06:11:13.913Z,4.33
2019-01-08T06:16:30.175Z,2.90
2019-01-08T06:21:46.009Z,2.47
2019-01-08T06:27:01.264Z,3.27
2019-01-08T06:32:17.213Z,2.60
2019-01-08T06:37:33.221Z,2.30
2019-01-08T06:42:49.149Z,2.10
2019-01-08T06:48:04.441Z,2.67
2019-01-08T06:53:19.740Z,2.60
2019-01-08T07:04:09.310Z,2.30
2019-01-08T07:09:25.263Z,1.80
2019-01-08T07:14:40.767Z,1.33
2019-01-08T07:19:56.956Z,2.10
2019-01-08T07:25:12.781Z,1.60
2019-01-08T07:30:28.366Z,1.27
2019-01-08T07:35:43.931Z,1.77
2019-01-08T07:40:59.445Z,2.10
2019-01-08T07:46:14.830Z,1.80
2019-01-08T07:51:30.705Z,1.80
2019-01-08T07:56:46.887Z,2.17
2019-01-08T08:02:02.086Z,1.77
2019-01-08T08:07:17.828Z,1.63
2019-01-08T08:12:33.699Z,1.70
2019-01-08T08:17:51.485Z,2.20
2019-01-08T08:23:07.253Z,1.20
2019-01-08T08:28:23.230Z,2.07
2019-01-08T08:33:39.274Z,2.13
2019-01-08T08:38:55.016Z,1.70
2019-01-08T08:44:10.494Z,2.57
2019-01-08T08:49:26.024Z,3.07
2019-01-08T08:54:42.276Z,2.80
2019-01-08T08:59:58.271Z,2.63
2019-01-08T09:05:13.884Z,2.23
2019-01-08T09:10:29.341Z,2.40
2019-01-08T09:15:45.032Z,2.10
2019-01-08T09:21:00.674Z,2.40
2019-01-08T09:26:16.320Z,2.47
2019-01-08T09:31:32.022Z,2.33
2019-01-08T09:36:47.826Z,2.00
2019-01-08T09:42:03.098Z,3.07
2019-01-08T09:47:18.585Z,3.33
2019-01-08T09:52:34.273Z,2.07
2019-01-08T09:57:50.180Z,2.27
2019-01-08T10:03:05.746Z,2.53
2019-01-08T10:08:21.189Z,2.27
2019-01-08T10:13:37.029Z,2.63
2019-01-08T10:18:52.854Z,2.63
2019-01-08T10:24:08.401Z,2.70
2019-01-08T10:29:24.101Z,3.50
2019-01-08T10:34:39.670Z,2.47
2019-01-08T10:39:55.586Z,3.57
2019-01-08T10:45:11.054Z,2.30
2019-01-08T10:50:26.507Z,2.53
2019-01-08T10:55:41.873Z,2.40
2019-01-08T11:00:57.692Z,2.63
2019-01-08T11:06:13.481Z,2.20
2019-01-08T11:11:28.749Z,2.23
2019-01-08T11:16:44.521Z,2.83
2019-01-08T11:21:59.980Z,3.27
2019-01-08T11:27:15.681Z,3.03
2019-01-08T11:32:31.093Z,2.60
2019-01-08T11:43:11.790Z,2.20
2019-01-08T11:48:27.452Z,1.93
2019-01-08T11:53:43.486Z,2.17
2019-01-08T11:58:59.139Z,3.60
2019-01-08T12:04:15.009Z,2.70
2019-01-08T12:09:31.105Z,2.00
2019-01-08T12:14:46.950Z,2.43
2019-01-08T12:20:02.442Z,2.50
2019-01-08T12:25:18.117Z,1.47
2019-01-08T12:30:33.951Z,1.70
2019-01-08T12:35:49.217Z,2.83
2019-01-08T12:41:05.079Z,2.83
2019-01-08T12:46:20.589Z,2.57
2019-01-08T12:51:36.027Z,3.10
2019-01-08T12:56:51.658Z,4.47
2019-01-08T13:02:14.494Z,2.73
2019-01-08T13:07:25.079Z,2.63
2019-01-08T13:12:40.821Z,3.40
2019-01-08T13:17:56.150Z,3.07
2019-01-08T13:23:11.638Z,2.80
2019-01-08T13:28:27.658Z,3.37
2019-01-08T13:33:43.733Z,1.97
2019-01-08T13:39:00.078Z,3.00
2019-01-08T13:44:15.593Z,2.50
2019-01-08T13:49:31.318Z,2.10
2019-01-08T13:54:46.624Z,2.00
2019-01-08T14:00:02.992Z,1.97
2019-01-08T14:05:18.977Z,2.03
2019-01-08T14:10:35.097Z,2.27
2019-01-08T14:15:51.337Z,2.73
2019-01-08T14:21:06.774Z,2.27
2019-01-08T14:26:22.017Z,2.90
2019-01-08T14:31:37.701Z,1.20
2019-01-08T14:36:52.958Z,1.80
2019-01-08T14:42:08.810Z,2.07
2019-01-08T14:47:24.660Z,1.30
2019-01-08T14:52:39.979Z,1.97
2019-01-08T14:57:55.774Z,1.70
2019-01-08T15:03:11.519Z,1.60
2019-01-08T15:08:27.699Z,0.97
2019-01-08T15:13:43.176Z,1.60
2019-01-08T15:18:59.346Z,1.50
2019-01-08T15:24:15.574Z,1.23
2019-01-08T15:29:31.188Z,1.33
2019-01-08T15:34:46.454Z,1.30
2019-01-08T15:40:05.460Z,1.87
2019-01-08T15:45:21.789Z,2.37
2019-01-08T15:50:37.720Z,2.23
2019-01-08T15:55:53.172Z,2.47
2019-01-08T16:01:08.727Z,1.70
2019-01-08T16:06:23.980Z,2.03
2019-01-08T16:11:39.217Z,3.03
2019-01-08T16:16:54.658Z,2.50
2019-01-08T16:22:10.886Z,2.63
2019-01-08T16:27:26.277Z,1.80
2019-01-08T16:32:41.973Z,3.23
2019-01-08T16:37:57.325Z,2.10
2019-01-08T16:43:12.911Z,2.80
2019-01-08T16:48:28.922Z,1.17
2019-01-08T16:53:44.269Z,1.20
2019-01-08T16:58:59.702Z,0.77
2019-01-08T17:04:15.681Z,0.70
2019-01-08T17:09:30.829Z,1.57
2019-01-08T17:14:46.747Z,1.00
2019-01-08T17:20:01.888Z,1.20
2019-01-08T17:25:17.476Z,1.23
2019-01-08T17:30:33.799Z,1.30
2019-01-08T17:35:51.074Z,1.73
2019-01-08T17:41:06.250Z,1.67
2019-01-08T17:46:21.805Z,1.63
2019-01-08T17:51:37.821Z,1.90
2019-01-08T17:56:53.365Z,2.40
2019-01-08T18:02:08.690Z,2.80
2019-01-08T18:07:24.505Z,1.87
2019-01-08T18:12:40.941Z,2.87
2019-01-08T18:17:56.117Z,2.27
2019-01-08T18:23:12.003Z,2.00
2019-01-08T18:28:28.161Z,2.67
2019-01-08T18:33:51.128Z,2.23
2019-01-08T18:39:02.879Z,2.10
2019-01-08T18:44:18.725Z,2.37
2019-01-08T18:49:34.345Z,3.10
2019-01-08T18:54:50.433Z,1.87
2019-01-08T19:00:06.215Z,2.80
2019-01-08T19:05:22.090Z,2.10
2019-01-08T19:10:37.457Z,1.43
2019-01-08T19:15:53.398Z,1.67
2019-01-08T19:21:10.353Z,1.70
2019-01-08T19:26:26.463Z,1.37
2019-01-08T19:31:41.785Z,1.23
2019-01-08T19:36:57.509Z,2.80
2019-01-08T19:42:12.885Z,2.00
2019-01-08T19:47:28.486Z,1.67
2019-01-08T19:52:44.368Z,2.00
2019-01-08T19:57:59.724Z,2.87
2019-01-08T20:03:15.477Z,2.00
2019-01-08T20:08:30.933Z,2.30
2019-01-08T20:13:47.035Z,1.90
2019-01-08T20:19:02.230Z,1.80
2019-01-08T20:24:17.788Z,1.97
2019-01-08T20:29:34.244Z,1.80
2019-01-08T20:34:49.813Z,3.53
2019-01-08T20:40:05.421Z,2.17
2019-01-08T20:45:21.085Z,1.73
2019-01-08T20:50:36.461Z,1.83
2019-01-08T20:55:52.293Z,1.93
2019-01-08T21:01:08.129Z,2.80
2019-01-08T21:06:23.718Z,2.33
2019-01-08T21:11:39.557Z,2.20
2019-01-08T21:16:55.581Z,2.80
2019-01-08T21:22:10.999Z,2.60
2019-01-08T21:27:29.881Z,1.63
2019-01-08T21:32:45.801Z,2.00
2019-01-08T21:38:01.070Z,2.23
2019-01-08T21:43:19.265Z,1.53
2019-01-08T21:48:34.611Z,1.80
2019-01-08T21:53:50.114Z,1.93
2019-01-08T21:59:05.597Z,1.37
2019-01-08T22:04:22.257Z,1.83
2019-01-08T22:09:38.465Z,1.70
2019-01-08T22:14:55.273Z,1.90
2019-01-08T22:20:11.020Z,1.20
2019-01-08T22:25:26.801Z,1.00
2019-01-08T22:30:42.617Z,1.30
2019-01-08T22:35:58.907Z,1.20
2019-01-08T22:41:15.018Z,1.43
2019-01-08T22:46:30.745Z,1.33
2019-01-08T22:51:46.288Z,2.00
2019-01-08T22:57:01.638Z,1.77
2019-01-08T23:02:17.405Z,1.50
2019-01-08T23:07:21.137Z,1.63
2019-01-08T23:12:24.822Z,1.37
2019-01-08T23:18:07.142Z,0.80
2019-01-08T23:23:30.137Z,0.80
2019-01-08T23:28:53.188Z,0.90
2019-01-08T23:34:08.410Z,0.87
2019-01-08T23:39:24.045Z,1.10
2019-01-08T23:44:40.073Z,1.00
2019-01-08T23:49:56.037Z,0.80
2019-01-08T23:55:11.475Z,0.63
